0XA6 weather

Jaxon Landing Heliport
Lubbock, Texas, United States

Public forecast

Using degrees Fahrenheit for public forecast. Weather courtesy of forecast.io.

METAR (pilot weather report)

Closest report is Lubbock Preston Smith International Airport, 14.1 nm (26.1 km) NNE. Retrieved 2019/09/21 05:32 UTC (9 minutes ago):

KLBB 210532Z 11012G19KT 8SM -TSRA OVC005CB 21/20 A3001

TAF (pilot weather forecast)

Forecast is more than 12 hours old.

Closest forecast is Lubbock Preston Smith International Airport, 14.1 nm (26.1 km) NNE. Retrieved 2019/09/20 00:45 UTC (1 day ago):

TAF KLBB 202342Z 2100/2124 13010KT P6SM FEW060 SCT150 SCT250 FM210200 15010KT P6SM VCTS SCT015 SCT040CB BKN150 FM211300 18011KT P6SM -SHRA BKN015 OVC100